createdAt,value
2019-05-01T00:02:10.509Z,14.01
2019-05-01T00:05:09.561Z,13.84
2019-05-01T00:07:42.201Z,13.91
2019-05-01T00:10:17.510Z,13.85
2019-05-01T00:12:49.399Z,13.86
2019-05-01T00:15:23.945Z,13.78
2019-05-01T00:17:56.391Z,13.81
2019-05-01T00:20:28.279Z,13.75
2019-05-01T00:23:00.433Z,13.77
2019-05-01T00:25:33.961Z,13.57
2019-05-01T00:28:06.820Z,13.27
2019-05-01T00:30:39.077Z,13.21
2019-05-01T00:33:10.907Z,13.01
2019-05-01T00:35:42.750Z,12.90
2019-05-01T00:38:14.563Z,12.92
2019-05-01T00:40:46.914Z,13.04
2019-05-01T00:43:22.033Z,13.14
2019-05-01T00:45:54.570Z,13.27
2019-05-01T00:48:26.553Z,13.29
2019-05-01T00:50:58.403Z,13.34
2019-05-01T00:53:33.516Z,13.32
2019-05-01T00:56:26.215Z,13.44
2019-05-01T00:59:31.874Z,13.23
2019-05-01T01:02:10.969Z,12.83
2019-05-01T01:04:44.623Z,12.95
2019-05-01T01:07:16.354Z,13.04
2019-05-01T01:09:48.113Z,13.06
2019-05-01T01:12:20.119Z,13.01
2019-05-01T01:14:51.935Z,12.94
2019-05-01T01:17:23.791Z,12.88
2019-05-01T01:19:57.345Z,12.90
2019-05-01T01:22:29.073Z,13.02
2019-05-01T01:25:01.832Z,13.10
2019-05-01T01:27:33.778Z,12.90
2019-05-01T01:30:07.424Z,12.92
2019-05-01T01:32:40.110Z,12.89
2019-05-01T01:35:12.946Z,12.71
2019-05-01T01:37:44.686Z,12.77
2019-05-01T01:40:17.743Z,12.77
2019-05-01T01:42:52.659Z,12.81
2019-05-01T01:45:34.427Z,12.79
2019-05-01T01:48:14.167Z,12.55
2019-05-01T01:50:46.040Z,12.60
2019-05-01T01:53:19.607Z,12.64
2019-05-01T01:55:51.367Z,12.59
2019-05-01T01:58:24.643Z,12.41
2019-05-01T02:01:24.204Z,12.50
2019-05-01T02:04:02.906Z,12.14
2019-05-01T02:06:34.788Z,12.30
2019-05-01T02:09:07.047Z,12.28
2019-05-01T02:11:40.339Z,12.36
2019-05-01T02:14:12.089Z,12.44
2019-05-01T02:16:48.434Z,12.45
2019-05-01T02:19:20.563Z,12.56
2019-05-01T02:21:52.325Z,12.14
2019-05-01T02:24:24.097Z,12.01
2019-05-01T02:26:57.520Z,11.81
2019-05-01T02:29:34.898Z,11.70
2019-05-01T02:32:07.845Z,11.81
2019-05-01T02:34:39.944Z,11.98
2019-05-01T02:37:13.377Z,12.09
2019-05-01T02:39:45.509Z,12.12
2019-05-01T02:42:17.237Z,12.07
2019-05-01T02:44:50.738Z,12.14
2019-05-01T02:47:27.623Z,12.31
2019-05-01T02:50:05.554Z,12.13
2019-05-01T02:52:38.211Z,12.05
2019-05-01T02:55:19.368Z,12.15
2019-05-01T02:57:51.161Z,12.09
2019-05-01T03:00:22.951Z,12.02
2019-05-01T03:02:54.715Z,11.99
2019-05-01T03:05:26.479Z,11.96
2019-05-01T03:08:02.628Z,11.92
2019-05-01T03:10:34.394Z,11.88
2019-05-01T03:13:06.225Z,11.94
2019-05-01T03:15:38.039Z,11.80
2019-05-01T03:18:28.383Z,11.76
2019-05-01T03:21:09.055Z,11.67
2019-05-01T03:23:45.866Z,11.49
2019-05-01T03:26:17.602Z,11.46
2019-05-01T03:28:49.350Z,11.38
2019-05-01T03:31:22.313Z,11.43
2019-05-01T03:33:54.597Z,11.51
2019-05-01T03:36:26.319Z,11.56
2019-05-01T03:38:58.076Z,11.56
2019-05-01T03:41:30.290Z,11.69
2019-05-01T03:44:03.100Z,11.65
2019-05-01T03:46:34.871Z,11.71
2019-05-01T03:49:06.615Z,11.65
2019-05-01T03:51:38.633Z,11.49
2019-05-01T03:54:10.427Z,11.48
2019-05-01T03:56:42.317Z,11.42
2019-05-01T03:59:14.079Z,11.40
2019-05-01T04:02:04.896Z,11.28
2019-05-01T04:04:36.678Z,11.21
2019-05-01T04:07:08.832Z,11.04
2019-05-01T04:09:40.712Z,11.18
2019-05-01T04:12:12.506Z,11.20
2019-05-01T04:14:46.255Z,11.30
2019-05-01T04:17:27.106Z,11.31
2019-05-01T04:19:58.827Z,11.41
2019-05-01T04:22:30.997Z,11.44
2019-05-01T04:25:02.774Z,11.74
2019-05-01T04:27:37.457Z,11.79
2019-05-01T04:30:24.531Z,11.84
2019-05-01T04:32:58.481Z,12.01
2019-05-01T04:35:49.071Z,12.22
2019-05-01T04:38:20.829Z,12.07
2019-05-01T04:40:52.817Z,11.41
2019-05-01T04:43:27.881Z,11.43
2019-05-01T04:45:59.673Z,11.42
2019-05-01T04:48:31.767Z,11.38
2019-05-01T04:51:03.561Z,11.43
2019-05-01T04:53:37.602Z,11.47
2019-05-01T04:56:09.493Z,11.32
2019-05-01T04:58:41.225Z,11.20
2019-05-01T05:01:12.995Z,11.12
2019-05-01T05:03:45.016Z,11.14
2019-05-01T05:06:16.813Z,11.13
2019-05-01T05:08:48.585Z,11.13
2019-05-01T05:11:24.950Z,11.14
2019-05-01T05:14:17.225Z,11.16
2019-05-01T05:16:58.747Z,11.00
2019-05-01T05:19:30.529Z,10.93
2019-05-01T05:22:02.277Z,10.94
2019-05-01T05:24:34.004Z,10.97
2019-05-01T05:27:05.815Z,11.03
2019-05-01T05:29:37.630Z,11.23
2019-05-01T05:32:09.387Z,11.15
2019-05-01T05:34:41.224Z,11.60
2019-05-01T05:37:21.237Z,11.47
2019-05-01T05:39:53.100Z,11.45
2019-05-01T05:42:24.899Z,11.60
2019-05-01T05:44:57.573Z,11.53
2019-05-01T05:47:29.761Z,11.48
2019-05-01T05:50:01.543Z,11.46
2019-05-01T05:52:50.502Z,11.66
2019-05-01T05:55:33.116Z,11.63
2019-05-01T05:58:11.750Z,11.45
2019-05-01T06:01:01.012Z,11.17
2019-05-01T06:03:50.952Z,11.69
2019-05-01T06:06:45.573Z,11.92
2019-05-01T06:09:17.372Z,11.95
2019-05-01T06:12:04.974Z,12.07
2019-05-01T06:14:43.502Z,12.23
2019-05-01T06:17:37.507Z,12.33
2019-05-01T06:20:27.682Z,12.13
2019-05-01T06:23:24.125Z,12.02
2019-05-01T06:26:00.162Z,12.11
2019-05-01T06:28:35.407Z,12.09
2019-05-01T06:31:23.203Z,12.14
2019-05-01T06:33:53.071Z,12.23
2019-05-01T06:36:26.971Z,12.27
2019-05-01T06:39:00.442Z,12.27
2019-05-01T06:41:42.650Z,12.25
2019-05-01T06:44:38.641Z,12.23
2019-05-01T06:47:24.613Z,13.34
2019-05-01T06:50:24.511Z,14.86
2019-05-01T06:52:59.832Z,15.97
2019-05-01T06:55:31.676Z,16.62
2019-05-01T06:58:03.509Z,16.05
2019-05-01T07:00:39.158Z,16.09
2019-05-01T07:03:11.694Z,16.98
2019-05-01T07:05:44.702Z,16.66
2019-05-01T07:08:24.392Z,17.69
2019-05-01T07:10:50.121Z,17.93
2019-05-01T07:13:21.940Z,18.62
2019-05-01T07:15:58.270Z,19.02
2019-05-01T07:18:29.196Z,19.26
2019-05-01T07:21:01.888Z,19.53
2019-05-01T07:23:35.476Z,19.37
2019-05-01T07:26:10.023Z,20.12
2019-05-01T07:28:42.463Z,20.53
2019-05-01T07:31:15.905Z,20.33
2019-05-01T07:33:51.233Z,20.90
2019-05-01T07:36:21.278Z,20.67
2019-05-01T07:38:53.056Z,20.90
2019-05-01T07:41:25.699Z,20.35
2019-05-01T07:44:16.726Z,18.29
2019-05-01T07:47:04.905Z,19.40
2019-05-01T07:50:01.548Z,20.69
2019-05-01T07:52:33.382Z,21.77
2019-05-01T07:55:07.538Z,22.42
2019-05-01T07:57:41.309Z,23.02
2019-05-01T08:00:22.941Z,22.61
2019-05-01T08:02:55.367Z,23.14
2019-05-01T08:05:27.205Z,21.62
2019-05-01T08:08:02.902Z,22.66
2019-05-01T08:10:34.911Z,22.91
2019-05-01T08:13:06.732Z,22.90
2019-05-01T08:15:38.563Z,24.65
2019-05-01T08:18:17.963Z,24.72
2019-05-01T08:21:21.201Z,24.69
2019-05-01T08:24:26.347Z,25.49
2019-05-01T08:26:59.222Z,24.96
2019-05-01T08:30:05.211Z,24.18
2019-05-01T08:33:14.675Z,24.64
2019-05-01T08:35:44.852Z,24.76
2019-05-01T08:38:16.595Z,24.08
2019-05-01T08:40:50.795Z,25.62
2019-05-01T08:43:26.121Z,25.21
2019-05-01T08:46:16.489Z,25.75
2019-05-01T08:49:12.612Z,26.91
2019-05-01T08:52:13.615Z,25.50
2019-05-01T08:54:47.298Z,25.90
2019-05-01T08:57:20.650Z,27.15
2019-05-01T08:59:55.798Z,25.82
2019-05-01T09:02:27.852Z,26.08
2019-05-01T09:05:02.476Z,26.88
2019-05-01T09:07:35.920Z,27.00
2019-05-01T09:10:09.189Z,28.75
2019-05-01T09:12:46.906Z,27.76
2019-05-01T09:15:16.479Z,29.06
2019-05-01T09:17:48.232Z,29.55
2019-05-01T09:20:20.012Z,29.38
2019-05-01T09:22:51.747Z,29.96
2019-05-01T09:25:30.863Z,30.17
2019-05-01T09:28:11.269Z,29.36
2019-05-01T09:31:01.545Z,29.21
2019-05-01T09:33:30.778Z,29.44
2019-05-01T09:36:02.175Z,28.17
2019-05-01T09:38:33.984Z,29.76
2019-05-01T09:41:08.452Z,29.39
2019-05-01T09:43:40.779Z,28.23
2019-05-01T09:46:12.591Z,28.60
2019-05-01T09:48:45.233Z,29.99
2019-05-01T09:51:33.535Z,27.64
2019-05-01T09:54:13.967Z,29.02
2019-05-01T09:56:45.810Z,29.03
2019-05-01T09:59:19.139Z,28.57
2019-05-01T10:01:51.955Z,28.84
2019-05-01T10:04:25.224Z,29.11
2019-05-01T10:06:57.307Z,27.56
2019-05-01T10:09:29.068Z,28.07
2019-05-01T10:12:00.881Z,27.91
2019-05-01T10:14:36.230Z,26.54
2019-05-01T10:17:08.671Z,27.90
2019-05-01T10:19:40.421Z,29.09
2019-05-01T10:22:12.542Z,30.06
2019-05-01T10:24:44.359Z,30.87
2019-05-01T10:27:19.073Z,29.29
2019-05-01T10:30:15.681Z,29.32
2019-05-01T10:32:52.824Z,27.43
2019-05-01T10:35:42.642Z,29.41
2019-05-01T10:38:10.906Z,30.14
2019-05-01T10:40:43.891Z,28.98
2019-05-01T10:43:15.767Z,27.55
2019-05-01T10:45:47.597Z,27.03
2019-05-01T10:48:19.372Z,28.39
2019-05-01T10:50:53.587Z,29.02
2019-05-01T10:53:25.390Z,27.69
2019-05-01T10:55:59.055Z,27.93
2019-05-01T10:58:30.911Z,27.11
2019-05-01T11:01:12.396Z,27.45
2019-05-01T11:03:44.268Z,28.40
2019-05-01T11:06:16.015Z,27.56
2019-05-01T11:08:48.799Z,27.47
2019-05-01T11:11:20.527Z,27.80
2019-05-01T11:13:52.374Z,28.09
2019-05-01T11:16:24.088Z,28.22
2019-05-01T11:18:55.931Z,27.74
2019-05-01T11:21:27.714Z,29.02
2019-05-01T11:23:59.528Z,29.49
2019-05-01T11:26:31.351Z,28.23
2019-05-01T11:29:04.184Z,28.40
2019-05-01T11:31:44.043Z,28.37
2019-05-01T11:34:35.911Z,27.83
2019-05-01T11:37:26.514Z,27.75
2019-05-01T11:40:06.018Z,27.56
2019-05-01T11:42:37.757Z,27.19
2019-05-01T11:45:10.950Z,27.15
2019-05-01T11:47:42.911Z,28.19
2019-05-01T11:50:14.772Z,27.64
2019-05-01T11:52:48.417Z,27.31
2019-05-01T11:55:21.335Z,26.85
2019-05-01T11:57:53.150Z,25.84
2019-05-01T12:00:25.203Z,26.06
2019-05-01T12:02:56.950Z,26.91
2019-05-01T12:05:28.732Z,26.80
2019-05-01T12:08:00.550Z,26.94
2019-05-01T12:10:32.363Z,27.26
2019-05-01T12:13:04.190Z,27.00
2019-05-01T12:15:36.311Z,27.38
2019-05-01T12:18:08.203Z,27.39
2019-05-01T12:20:40.295Z,27.12
2019-05-01T12:23:12.055Z,27.12
2019-05-01T12:25:43.876Z,27.50
2019-05-01T12:28:16.679Z,26.95
2019-05-01T12:30:48.447Z,27.41
2019-05-01T12:33:20.999Z,27.54
2019-05-01T12:35:54.838Z,27.94
2019-05-01T12:38:28.351Z,27.62
2019-05-01T12:41:17.945Z,27.96
2019-05-01T12:43:49.806Z,28.13
2019-05-01T12:46:58.363Z,27.80
2019-05-01T12:49:30.327Z,27.92
2019-05-01T12:52:10.200Z,27.69
2019-05-01T12:54:54.560Z,27.34
2019-05-01T12:57:28.097Z,27.17
2019-05-01T13:00:08.427Z,27.49
2019-05-01T13:02:34.653Z,27.68
2019-05-01T13:05:06.621Z,27.17
2019-05-01T13:07:38.537Z,27.72
2019-05-01T13:10:10.311Z,27.92
2019-05-01T13:12:44.005Z,27.43
2019-05-01T13:15:15.765Z,27.46
2019-05-01T13:17:48.382Z,28.01
2019-05-01T13:20:20.148Z,26.84
2019-05-01T13:22:53.603Z,27.60
2019-05-01T13:25:25.334Z,27.45
2019-05-01T13:28:11.131Z,27.24
2019-05-01T13:30:50.509Z,26.80
2019-05-01T13:33:22.253Z,27.57
2019-05-01T13:35:54.007Z,28.24
2019-05-01T13:38:25.757Z,27.35
2019-05-01T13:40:57.521Z,27.36
2019-05-01T13:43:29.227Z,27.88
2019-05-01T13:46:00.994Z,27.86
2019-05-01T13:48:34.606Z,27.98
2019-05-01T13:51:06.320Z,28.03
2019-05-01T13:53:41.696Z,27.88
2019-05-01T13:56:13.529Z,27.68
2019-05-01T13:58:45.878Z,27.72
2019-05-01T14:01:18.628Z,28.07
2019-05-01T14:03:50.442Z,27.84
2019-05-01T14:06:22.190Z,27.95
2019-05-01T14:08:55.816Z,27.66
2019-05-01T14:11:27.560Z,27.83
2019-05-01T14:13:59.286Z,28.12
2019-05-01T14:16:31.087Z,28.08
2019-05-01T14:19:02.835Z,28.05
2019-05-01T14:21:42.858Z,27.45
2019-05-01T14:24:42.419Z,27.27
2019-05-01T14:27:14.177Z,27.54
2019-05-01T14:29:45.941Z,27.57
2019-05-01T14:32:18.518Z,27.76
2019-05-01T14:34:50.391Z,27.10
2019-05-01T14:37:29.557Z,27.03
2019-05-01T14:39:56.795Z,27.28
2019-05-01T14:42:28.599Z,27.30
2019-05-01T14:45:02.033Z,27.19
2019-05-01T14:47:34.185Z,27.11
2019-05-01T14:50:06.202Z,27.40
2019-05-01T14:52:38.079Z,27.63
2019-05-01T14:55:12.004Z,27.63
2019-05-01T14:57:44.324Z,27.32
2019-05-01T15:00:16.679Z,27.34
2019-05-01T15:02:49.149Z,26.98
2019-05-01T15:05:26.291Z,26.94
2019-05-01T15:07:58.527Z,27.02
2019-05-01T15:10:30.372Z,27.13
2019-05-01T15:13:09.309Z,27.02
2019-05-01T15:15:54.895Z,27.13
2019-05-01T15:18:46.444Z,27.04
2019-05-01T15:21:24.706Z,26.93
2019-05-01T15:24:25.392Z,27.15
2019-05-01T15:26:57.374Z,26.99
2019-05-01T15:29:35.526Z,26.60
2019-05-01T15:32:10.934Z,26.87
2019-05-01T15:34:43.124Z,26.96
2019-05-01T15:37:14.946Z,26.50
2019-05-01T15:40:07.255Z,26.50
2019-05-01T15:43:00.847Z,26.59
2019-05-01T15:45:42.374Z,26.88
2019-05-01T15:48:14.210Z,26.69
2019-05-01T15:50:46.991Z,26.63
2019-05-01T15:53:19.492Z,26.60
2019-05-01T15:55:51.251Z,26.26
2019-05-01T15:58:24.843Z,26.52
2019-05-01T16:00:56.634Z,26.51
2019-05-01T16:03:28.425Z,26.46
2019-05-01T16:06:00.220Z,26.31
2019-05-01T16:08:31.959Z,26.14
2019-05-01T16:11:13.286Z,26.24
2019-05-01T16:13:46.267Z,26.47
2019-05-01T16:16:18.059Z,26.33
2019-05-01T16:18:50.033Z,26.31
2019-05-01T16:21:21.804Z,26.23
2019-05-01T16:23:53.582Z,25.99
2019-05-01T16:26:25.288Z,25.98
2019-05-01T16:28:57.027Z,26.04
2019-05-01T16:31:30.184Z,26.13
2019-05-01T16:34:01.951Z,26.16
2019-05-01T16:36:33.746Z,25.85
2019-05-01T16:39:21.923Z,25.83
2019-05-01T16:41:53.741Z,25.67
2019-05-01T16:44:27.749Z,25.87
2019-05-01T16:46:59.572Z,25.84
2019-05-01T16:49:31.419Z,25.89
2019-05-01T16:52:03.197Z,25.88
2019-05-01T16:54:36.252Z,25.79
2019-05-01T16:57:10.074Z,25.64
2019-05-01T16:59:42.110Z,25.55
2019-05-01T17:02:32.064Z,25.56
2019-05-01T17:05:21.075Z,25.44
2019-05-01T17:08:15.640Z,25.52
2019-05-01T17:10:48.911Z,25.68
2019-05-01T17:13:20.642Z,25.64
2019-05-01T17:15:52.396Z,25.60
2019-05-01T17:18:24.381Z,25.58
2019-05-01T17:20:56.261Z,25.43
2019-05-01T17:23:31.015Z,25.38
2019-05-01T17:26:02.857Z,25.37
2019-05-01T17:28:34.739Z,25.27
2019-05-01T17:31:06.550Z,25.24
2019-05-01T17:33:38.327Z,25.19
2019-05-01T17:36:10.279Z,25.04
2019-05-01T17:38:49.258Z,25.03
2019-05-01T17:41:15.851Z,24.96
2019-05-01T17:43:49.500Z,24.97
2019-05-01T17:46:21.149Z,24.79
2019-05-01T17:48:53.929Z,24.76
2019-05-01T17:51:25.765Z,24.69
2019-05-01T17:53:57.676Z,24.65
2019-05-01T17:56:29.496Z,24.56
2019-05-01T17:59:01.282Z,24.55
2019-05-01T18:02:05.221Z,24.53
2019-05-01T18:05:05.822Z,24.46
2019-05-01T18:07:37.715Z,24.44
2019-05-01T18:10:11.120Z,24.27
2019-05-01T18:12:42.923Z,24.28
2019-05-01T18:15:16.403Z,24.24
2019-05-01T18:17:50.699Z,24.13
2019-05-01T18:20:24.207Z,24.00
2019-05-01T18:23:12.359Z,23.92
2019-05-01T18:25:51.986Z,23.83
2019-05-01T18:29:00.858Z,23.71
2019-05-01T18:31:33.292Z,23.62
2019-05-01T18:34:05.264Z,23.48
2019-05-01T18:36:42.545Z,23.36
2019-05-01T18:39:22.081Z,23.26
2019-05-01T18:42:04.102Z,23.10
2019-05-01T18:44:35.973Z,23.00
2019-05-01T18:47:08.257Z,22.88
2019-05-01T18:50:04.421Z,22.78
2019-05-01T18:52:36.529Z,22.69
2019-05-01T18:55:14.453Z,22.57
2019-05-01T18:57:50.541Z,22.45
2019-05-01T19:00:22.936Z,22.39
2019-05-01T19:02:54.805Z,22.33
2019-05-01T19:05:26.676Z,22.18
2019-05-01T19:07:58.572Z,22.13
2019-05-01T19:10:30.956Z,22.07
2019-05-01T19:13:05.139Z,22.02
2019-05-01T19:15:36.965Z,21.93
2019-05-01T19:18:09.494Z,21.83
2019-05-01T19:20:41.282Z,21.63
2019-05-01T19:23:14.784Z,21.62
2019-05-01T19:25:47.084Z,21.54
2019-05-01T19:28:19.013Z,21.35
2019-05-01T19:30:50.793Z,21.19
2019-05-01T19:33:22.908Z,21.07
2019-05-01T19:35:55.086Z,20.94
2019-05-01T19:38:29.396Z,20.85
2019-05-01T19:41:03.592Z,20.83
2019-05-01T19:43:40.499Z,20.76
2019-05-01T19:46:12.793Z,20.66
2019-05-01T19:48:50.802Z,20.71
2019-05-01T19:51:24.161Z,20.63
2019-05-01T19:53:54.086Z,20.55
2019-05-01T19:56:27.147Z,20.50
2019-05-01T19:59:00.917Z,20.39
2019-05-01T20:01:33.050Z,20.31
2019-05-01T20:04:08.587Z,20.46
2019-05-01T20:06:40.170Z,20.25
2019-05-01T20:09:15.173Z,20.22
2019-05-01T20:11:47.190Z,20.30
2019-05-01T20:14:19.115Z,20.14
2019-05-01T20:16:53.434Z,20.10
2019-05-01T20:19:27.039Z,19.90
2019-05-01T20:21:58.997Z,19.82
2019-05-01T20:24:30.911Z,19.69
2019-05-01T20:27:05.397Z,19.61
2019-05-01T20:29:37.590Z,19.49
2019-05-01T20:32:09.418Z,19.39
2019-05-01T20:34:42.929Z,19.16
2019-05-01T20:37:16.133Z,18.98
2019-05-01T20:39:48.020Z,18.87
2019-05-01T20:42:19.851Z,18.78
2019-05-01T20:45:04.000Z,18.72
2019-05-01T20:47:34.797Z,18.57
2019-05-01T20:49:59.129Z,18.46
2019-05-01T20:52:33.179Z,18.53
2019-05-01T20:55:05.007Z,18.46
2019-05-01T20:57:39.035Z,18.51
2019-05-01T21:00:11.464Z,18.32
2019-05-01T21:02:44.630Z,18.35
2019-05-01T21:05:31.360Z,18.20
2019-05-01T21:08:12.808Z,17.99
2019-05-01T21:10:57.197Z,17.77
2019-05-01T21:13:29.130Z,17.62
2019-05-01T21:16:01.665Z,17.61
2019-05-01T21:18:34.612Z,17.53
2019-05-01T21:21:06.472Z,17.36
2019-05-01T21:23:40.964Z,17.27
2019-05-01T21:26:15.069Z,17.30
2019-05-01T21:28:46.864Z,17.38
2019-05-01T21:31:18.620Z,17.40
2019-05-01T21:33:50.831Z,17.39
2019-05-01T21:36:22.651Z,17.39
2019-05-01T21:38:54.416Z,17.31
2019-05-01T21:41:26.270Z,17.22
2019-05-01T21:44:02.664Z,17.17
2019-05-01T21:46:39.099Z,17.19
2019-05-01T21:49:10.303Z,16.96
2019-05-01T21:51:46.011Z,16.85
2019-05-01T21:54:20.709Z,16.88
2019-05-01T21:56:50.849Z,16.79
2019-05-01T21:59:22.690Z,16.83
2019-05-01T22:01:54.652Z,16.29
2019-05-01T22:04:27.780Z,16.22
2019-05-01T22:07:00.131Z,16.08
2019-05-01T22:09:31.894Z,16.10
2019-05-01T22:12:08.296Z,16.19
2019-05-01T22:14:52.038Z,15.93
2019-05-01T22:17:41.421Z,15.65
2019-05-01T22:20:14.667Z,15.60
2019-05-01T22:22:55.278Z,15.86
2019-05-01T22:25:31.331Z,15.95
2019-05-01T22:28:21.888Z,15.96
2019-05-01T22:31:27.772Z,15.99
2019-05-01T22:34:21.242Z,16.09
2019-05-01T22:36:53.056Z,15.77
2019-05-01T22:39:25.384Z,15.69
2019-05-01T22:41:57.194Z,15.70
2019-05-01T22:44:28.916Z,15.50
2019-05-01T22:47:01.305Z,15.48
2019-05-01T22:49:33.549Z,15.42
2019-05-01T22:52:07.374Z,15.39
2019-05-01T22:54:44.865Z,15.39
2019-05-01T22:57:14.723Z,15.38
2019-05-01T22:59:46.579Z,15.36
2019-05-01T23:02:30.354Z,15.41
2019-05-01T23:05:02.519Z,15.22
2019-05-01T23:07:34.430Z,15.05
2019-05-01T23:10:08.214Z,15.07
2019-05-01T23:12:40.265Z,15.06
2019-05-01T23:15:18.159Z,15.05
2019-05-01T23:17:50.671Z,15.08
2019-05-01T23:20:27.212Z,15.02
2019-05-01T23:23:00.184Z,15.06
2019-05-01T23:25:36.536Z,15.10
2019-05-01T23:28:06.102Z,15.04
2019-05-01T23:30:39.042Z,14.78
2019-05-01T23:33:11.110Z,14.61
2019-05-01T23:35:43.244Z,14.59
2019-05-01T23:38:15.437Z,14.53
2019-05-01T23:40:51.078Z,14.57
2019-05-01T23:43:23.026Z,14.46
2019-05-01T23:45:55.263Z,14.32
2019-05-01T23:48:27.059Z,14.30
2019-05-01T23:50:58.793Z,14.17
2019-05-01T23:53:30.554Z,14.21
2019-05-01T23:56:02.300Z,14.10
2019-05-01T23:58:35.705Z,14.11
